Time;durP1;ratioP1;P1;durP2;ratioP2;P2;SDS_P1;SDS_P2;PMS_P1;PMS_P2;Temp;Humidity;BMP_temperature;BMP_pressure;BME280_temperature;BME280_humidity;BME280_pressure;Samples;Min_cycle;Max_cycle;Signal;HPM_P1;HPM_P2
2022/11/18 00:01:32;;;;;;;2.80;1.70;;;9.20;99.90;;;12.43;55.75;95792.53;5036919;28;20381;-58
2022/11/18 00:04:00;;;;;;;1.13;1.00;;;9.20;99.90;;;12.44;55.89;95794.16;5021250;28;20050;-57
2022/11/18 00:06:29;;;;;;;1.93;1.47;;;9.20;99.90;;;12.41;56.11;95791.94;5020757;28;20044;-58
2022/11/18 00:08:59;;;;;;;2.37;1.30;;;9.20;99.90;;;12.45;55.96;95792.31;5020595;28;20042;-58
2022/11/18 00:14:19;;;;;;;1.20;0.70;;;9.30;99.90;;;12.50;56.30;95787.94;5020160;28;20050;-57
2022/11/18 00:17:00;;;;;;;1.50;1.10;;;9.30;99.90;;;12.52;55.94;95785.06;5021664;28;20060;-58
2022/11/18 00:19:34;;;;;;;0.83;0.67;;;9.30;99.90;;;12.53;56.23;95792.03;5020559;28;20060;-58
2022/11/18 00:22:05;;;;;;;1.20;0.70;;;9.30;99.90;;;12.54;56.15;95786.50;5021518;28;20046;-57
2022/11/18 00:24:33;;;;;;;3.30;1.00;;;9.30;99.90;;;12.51;56.20;95784.25;5021075;28;20045;-58
2022/11/18 00:27:01;;;;;;;1.90;1.00;;;9.30;99.90;;;12.48;56.48;95784.66;5021534;28;20050;-57
2022/11/18 00:29:30;;;;;;;2.40;1.07;;;9.20;99.90;;;12.44;56.36;95777.34;5021786;28;20336;-58
2022/11/18 00:31:58;;;;;;;1.10;0.80;;;9.20;99.90;;;12.41;56.69;95787.41;5025021;28;20050;-58
2022/11/18 00:34:26;;;;;;;1.23;0.77;;;9.20;99.90;;;12.41;56.57;95784.75;5023461;28;20344;-56
2022/11/18 00:36:55;;;;;;;1.77;0.80;;;9.20;99.90;;;12.37;57.31;95793.41;5024900;28;20054;-57
2022/11/18 00:39:23;;;;;;;1.90;0.83;;;9.20;99.90;;;12.45;56.67;95789.66;5024876;28;20242;-58
2022/11/18 00:44:38;;;;;;;3.93;0.70;;;9.30;99.90;;;12.45;56.66;95795.00;5023404;28;20388;-53
2022/11/18 00:47:06;;;;;;;1.67;1.20;;;9.30;99.90;;;12.45;57.02;95795.00;5023570;28;20252;-56
2022/11/18 00:49:34;;;;;;;1.73;0.90;;;9.30;99.90;;;12.45;56.95;95795.81;5024417;28;20046;-58
2022/11/18 00:52:02;;;;;;;1.27;0.80;;;9.30;99.90;;;12.49;57.27;95804.19;5023582;28;20053;-57
2022/11/18 00:54:31;;;;;;;1.83;0.73;;;9.30;99.90;;;12.50;57.25;95803.94;5006895;28;20063;-57
2022/11/18 00:56:59;;;;;;;1.93;1.00;;;9.30;99.90;;;12.48;57.05;95802.53;5024420;28;20054;-58
2022/11/18 00:59:27;;;;;;;1.27;0.70;;;9.30;99.90;;;12.47;57.09;95795.59;5023434;28;20060;-58
2022/11/18 01:01:55;;;;;;;1.30;0.73;;;9.30;99.90;;;12.41;57.37;95807.94;5024175;28;20060;-55
2022/11/18 01:04:23;;;;;;;1.30;0.77;;;9.30;99.90;;;12.39;57.35;95808.16;5023767;28;20034;-57
2022/11/18 01:06:51;;;;;;;1.80;0.67;;;9.30;99.90;;;12.40;57.38;95814.31;5023223;28;20068;-57
2022/11/18 01:09:19;;;;;;;2.57;0.97;;;9.20;99.90;;;12.37;57.23;95806.75;5024381;28;20048;-57
2022/11/18 01:14:34;;;;;;;2.50;0.90;;;9.10;99.90;;;12.36;57.24;95797.91;5023604;28;20283;-57
2022/11/18 01:17:02;;;;;;;1.60;0.90;;;9.10;99.90;;;12.31;57.92;95800.44;5023016;28;20050;-58
2022/11/18 01:19:31;;;;;;;1.03;0.77;;;9.20;99.90;;;12.35;57.50;95804.28;5024577;28;20056;-58
2022/11/18 01:22:01;;;;;;;1.23;0.80;;;9.20;99.90;;;12.36;57.47;95805.91;5023918;28;20042;-58
2022/11/18 01:24:32;;;;;;;1.70;1.00;;;9.20;99.90;;;12.38;57.43;95811.03;5022405;28;20041;-57
2022/11/18 01:27:01;;;;;;;1.77;1.33;;;9.20;99.90;;;12.33;57.82;95798.38;5023893;28;20321;-58
2022/11/18 01:29:29;;;;;;;2.27;0.70;;;9.20;99.90;;;12.33;57.45;95801.03;5022831;28;20056;-57
2022/11/18 01:31:57;;;;;;;1.60;0.80;;;9.10;99.90;;;12.24;57.85;95801.50;5023827;28;20049;-54
2022/11/18 01:34:45;;;;;;;0.60;0.60;;;9.10;99.90;;;12.27;57.79;95806.41;5022483;28;20050;-58
2022/11/18 01:37:13;;;;;;;0.83;0.67;;;9.10;99.90;;;12.31;57.53;95804.94;5023681;28;20045;-58
2022/11/18 01:39:41;;;;;;;1.20;0.70;;;9.20;99.90;;;12.33;57.51;95808.19;5022727;28;20056;-57
2022/11/18 01:42:16;;;;;;;1.20;0.70;;;9.10;99.90;;;12.33;57.55;95816.19;5022235;28;20120;-57
2022/11/18 01:45:14;;;;;;;1.17;0.70;;;9.20;99.90;;;12.33;57.62;95818.88;5021352;28;20050;-57
2022/11/18 01:48:00;;;;;;;0.40;0.40;;;9.20;99.90;;;12.33;57.47;95814.38;5008009;28;20056;-57
2022/11/18 01:50:29;;;;;;;0.60;0.60;;;9.20;99.90;;;12.33;57.02;95813.53;5022639;28;20046;-58
2022/11/18 01:53:10;;;;;;;1.50;0.63;;;9.20;99.90;;;12.34;57.37;95826.66;5022357;28;20046;-57
2022/11/18 01:55:45;;;;;;;0.37;0.37;;;9.30;99.90;;;12.29;57.41;95829.19;5022092;28;20060;-57
2022/11/18 01:58:25;;;;;;;0.87;0.63;;;9.20;99.90;;;12.28;57.81;95840.88;5022085;28;20235;-58
2022/11/18 02:00:54;;;;;;;1.17;0.60;;;9.20;99.90;;;12.28;57.46;95832.88;5021469;28;20068;-57
2022/11/18 02:03:24;;;;;;;1.20;0.43;;;9.20;99.90;;;12.25;57.62;95835.16;5004787;28;20052;-57
2022/11/18 02:05:54;;;;;;;1.50;0.57;;;9.20;99.90;;;12.19;57.42;95840.34;5022061;28;20295;-58
2022/11/18 02:08:22;;;;;;;0.57;0.50;;;9.20;99.90;;;12.23;57.56;95846.03;5021891;28;20046;-56
2022/11/18 02:10:50;;;;;;;2.00;0.60;;;9.20;99.90;;;12.24;57.12;95847.69;5021584;28;20049;-57
2022/11/18 02:13:19;;;;;;;0.67;0.40;;;9.20;99.90;;;12.26;57.32;95856.28;5020820;28;20045;-56
2022/11/18 02:16:20;;;;;;;1.33;1.23;;;9.30;99.90;;;12.27;57.47;95849.94;5021630;28;20344;-56
2022/11/18 02:19:02;;;;;;;1.17;0.40;;;9.20;99.90;;;12.22;57.46;95865.75;5022868;28;20053;-57
2022/11/18 02:21:54;;;;;;;1.27;0.67;;;9.20;99.90;;;12.15;57.61;95872.97;5021935;28;20049;-56
2022/11/18 02:25:03;;;;;;;0.83;0.37;;;9.10;99.90;;;12.15;57.98;95864.97;5022720;28;20340;-55
2022/11/18 02:28:30;;;;;;;0.93;0.40;;;9.10;99.90;;;12.12;58.01;95868.88;5021912;28;20068;-57
2022/11/18 02:31:31;;;;;;;1.87;0.40;;;9.00;99.90;;;12.01;58.29;95882.91;5020662;28;20049;-56
2022/11/18 02:34:36;;;;;;;0.40;0.33;;;8.90;99.90;;;12.06;58.34;95880.41;5020306;28;20092;-54
2022/11/18 02:37:42;;;;;;;0.47;0.40;;;8.90;99.90;;;12.02;58.61;95880.03;5011403;28;20348;-56
2022/11/18 02:40:16;;;;;;;0.37;0.37;;;9.00;99.90;;;12.09;58.00;95885.31;5022603;28;20073;-53
2022/11/18 02:42:55;;;;;;;0.33;0.33;;;8.90;99.90;;;12.10;58.02;95886.16;5022688;28;20152;-57
2022/11/18 02:45:27;;;;;;;1.07;0.50;;;8.90;99.90;;;12.10;58.23;95880.81;5021153;28;20053;-54
2022/11/18 02:47:58;;;;;;;0.63;0.43;;;8.90;99.90;;;12.10;58.29;95888.81;5021418;28;20049;-56
2022/11/18 02:50:29;;;;;;;2.23;0.57;;;8.90;99.90;;;12.04;58.28;95897.63;5021492;28;20056;-53
2022/11/18 02:53:01;;;;;;;0.63;0.60;;;8.90;99.90;;;11.90;58.89;95910.22;5020922;28;20059;-53
2022/11/18 02:55:33;;;;;;;0.70;0.57;;;8.80;99.90;;;11.95;58.52;95911.22;5037291;28;20064;-55
2022/11/18 02:58:04;;;;;;;0.70;0.50;;;8.70;99.90;;;11.89;58.74;95908.56;5018661;28;20056;-53
2022/11/18 03:00:32;;;;;;;1.20;0.57;;;8.60;99.90;;;11.90;58.95;95919.03;5054155;28;20189;-53
2022/11/18 03:03:27;;;;;;;3.97;0.87;;;8.60;99.90;;;11.94;58.70;95927.44;5053693;28;20278;-55
2022/11/18 03:06:37;;;;;;;0.87;0.70;;;8.70;99.90;;;11.96;58.98;95917.38;5052909;28;20042;-56
2022/11/18 03:09:16;;;;;;;1.10;1.00;;;8.70;99.90;;;12.00;58.86;95926.63;5039751;28;20049;-52
2022/11/18 03:11:53;;;;;;;1.90;1.43;;;8.70;99.90;;;11.85;59.28;95926.84;5020282;28;20061;-52
2022/11/18 03:14:50;;;;;;;0.60;0.60;;;8.60;99.90;;;11.72;59.82;95932.22;5052490;28;20067;-51
2022/11/18 03:17:45;;;;;;;3.20;0.63;;;8.60;99.90;;;11.82;59.08;95929.91;5051925;28;20057;-54
2022/11/18 03:20:27;;;;;;;2.00;0.80;;;8.50;99.90;;;11.75;59.59;95931.81;5052158;28;20056;-54
2022/11/18 03:23:40;;;;;;;0.67;0.63;;;8.50;99.90;;;11.75;59.62;95942.47;5053723;28;20046;-52
2022/11/18 03:26:19;;;;;;;1.30;0.80;;;8.50;99.90;;;11.70;59.83;95945.75;5022442;28;20248;-51
2022/11/18 03:29:05;;;;;;;2.13;0.63;;;8.50;99.90;;;11.75;60.00;95942.47;5052405;28;20049;-48
2022/11/18 03:31:48;;;;;;;1.70;0.63;;;8.50;99.90;;;11.77;59.57;95943.06;5051817;28;20049;-49
2022/11/18 03:34:27;;;;;;;1.47;0.70;;;8.60;99.90;;;11.74;59.59;95946.16;5036504;28;20364;-52
2022/11/18 03:37:00;;;;;;;0.40;0.40;;;8.50;99.90;;;11.76;59.40;95952.09;5051960;28;20071;-50
2022/11/18 03:39:39;;;;;;;0.97;0.70;;;8.50;99.90;;;11.76;59.97;95955.56;5052101;28;20050;-49
2022/11/18 03:42:15;;;;;;;0.80;0.60;;;8.50;99.90;;;11.80;59.49;95963.97;5052941;28;20077;-51
2022/11/18 03:44:53;;;;;;;0.60;0.40;;;8.50;99.90;;;11.79;59.65;95960.50;5021611;28;20229;-50
2022/11/18 03:47:52;;;;;;;0.80;0.50;;;8.50;99.90;;;11.81;59.14;95962.94;5052084;28;20050;-50
2022/11/18 03:50:30;;;;;;;2.30;0.57;;;8.50;99.90;;;11.88;59.00;95968.25;5022785;28;20056;-49
2022/11/18 03:53:01;;;;;;;0.53;0.47;;;8.50;99.90;;;11.90;58.72;95969.69;5052469;28;20317;-49
2022/11/18 03:55:37;;;;;;;1.20;0.37;;;8.50;99.90;;;11.87;58.87;95977.28;5052311;28;20081;-50
2022/11/18 03:58:30;;;;;;;0.80;0.57;;;8.50;99.90;;;11.87;58.91;95974.63;5052541;28;20248;-48
2022/11/18 04:01:16;;;;;;;1.47;0.60;;;8.50;99.90;;;11.85;59.04;95984.69;5022230;28;20060;-50
2022/11/18 04:03:44;;;;;;;0.70;0.57;;;8.50;99.90;;;11.86;59.08;95986.31;5052116;28;20068;-54
2022/11/18 04:06:40;;;;;;;3.80;0.80;;;8.50;99.90;;;11.81;59.02;95985.09;5056221;28;20042;-48
2022/11/18 04:09:22;;;;;;;0.40;0.40;;;8.50;99.90;;;11.83;59.33;95984.88;5024824;28;20060;-49
2022/11/18 04:12:01;;;;;;;3.30;0.70;;;8.50;99.90;;;11.82;59.05;95977.91;5054320;28;20052;-47
2022/11/18 04:14:42;;;;;;;1.13;0.50;;;8.50;99.90;;;11.79;58.92;95994.34;5054418;28;20050;-53
2022/11/18 04:17:18;;;;;;;1.63;0.80;;;8.40;99.90;;;11.77;58.88;95991.06;5025310;28;20247;-51
2022/11/18 04:19:47;;;;;;;0.50;0.30;;;8.40;99.90;;;11.74;59.15;95989.63;5041020;28;20060;-50
2022/11/18 04:22:16;;;;;;;0.50;0.43;;;8.40;99.90;;;11.75;59.11;95990.47;5024999;28;20366;-50
2022/11/18 04:24:45;;;;;;;0.60;0.33;;;8.40;99.90;;;11.72;58.76;95985.53;5024470;28;20136;-50
2022/11/18 04:27:13;;;;;;;1.30;0.60;;;8.40;99.90;;;11.72;58.78;95989.00;5056744;28;20046;-51
2022/11/18 04:29:41;;;;;;;0.70;0.40;;;8.40;99.90;;;11.69;59.15;95981.44;5025095;28;20214;-50
2022/11/18 04:32:09;;;;;;;0.97;0.53;;;8.40;99.90;;;11.65;58.78;95987.38;5025046;28;20046;-51
2022/11/18 04:34:37;;;;;;;0.30;0.23;;;8.40;99.90;;;11.58;58.98;95984.75;5024553;28;20060;-50
2022/11/18 04:37:05;;;;;;;0.40;0.40;;;8.20;99.90;;;11.54;58.69;95991.50;5025186;28;20166;-53
2022/11/18 04:39:34;;;;;;;0.20;0.20;;;8.30;99.90;;;11.51;58.68;95978.59;5024718;28;20050;-50
2022/11/18 04:42:03;;;;;;;0.20;0.20;;;8.20;99.90;;;11.48;58.91;95987.84;5024773;28;20332;-51
2022/11/18 04:44:33;;;;;;;0.60;0.40;;;8.20;99.90;;;11.50;58.85;95990.28;5024599;28;20050;-49
2022/11/18 04:47:04;;;;;;;0.43;0.30;;;8.20;99.90;;;11.49;58.73;96000.13;5039714;28;20052;-49
2022/11/18 04:49:33;;;;;;;0.63;0.40;;;8.20;99.90;;;11.46;58.70;96003.22;5024710;28;20046;-49
2022/11/18 04:52:02;;;;;;;0.30;0.30;;;8.20;99.90;;;11.39;59.13;95997.06;5024739;28;20050;-49
2022/11/18 04:54:30;;;;;;;0.87;0.50;;;8.20;99.90;;;11.38;59.03;95998.91;5023921;28;20054;-49
2022/11/18 04:56:59;;;;;;;1.33;0.47;;;8.20;99.90;;;11.45;58.81;95996.22;5024560;28;20054;-48
2022/11/18 04:59:29;;;;;;;0.40;0.40;;;8.20;99.90;;;11.52;59.13;96013.03;5024407;28;20060;-49
2022/11/18 05:01:59;;;;;;;0.60;0.60;;;8.30;99.90;;;11.48;58.95;96008.34;5022012;28;20060;-51
2022/11/18 05:04:31;;;;;;;0.50;0.50;;;8.20;99.90;;;11.46;58.80;96016.53;5054043;28;20041;-50
2022/11/18 05:07:02;;;;;;;0.90;0.53;;;8.20;99.90;;;11.51;58.94;96014.06;5024369;28;20340;-51
2022/11/18 05:09:30;;;;;;;0.57;0.40;;;8.20;99.90;;;11.54;58.81;96015.50;5055605;28;20045;-48
2022/11/18 05:14:47;;;;;;;1.10;0.67;;;8.30;99.90;;;11.54;58.66;96026.16;5050395;28;20056;-51
2022/11/18 05:17:18;;;;;;;1.80;0.50;;;8.20;99.90;;;11.51;58.63;96027.38;5023620;28;20060;-49
2022/11/18 05:19:47;;;;;;;1.97;0.50;;;8.30;99.90;;;11.49;58.69;96025.94;5055777;28;20057;-50
2022/11/18 05:22:15;;;;;;;0.80;0.80;;;8.20;99.90;;;11.50;58.63;96028.41;5023957;28;20225;-49
2022/11/18 05:24:43;;;;;;;1.17;0.57;;;8.20;99.90;;;11.56;58.57;96034.78;5055038;28;20045;-51
2022/11/18 05:27:13;;;;;;;0.83;0.30;;;8.30;99.90;;;11.55;58.80;96030.44;5024494;28;20054;-50
2022/11/18 05:29:41;;;;;;;0.53;0.40;;;8.20;99.90;;;11.56;58.99;96035.59;5023810;28;20049;-48
2022/11/18 05:32:10;;;;;;;1.60;0.40;;;8.20;99.90;;;11.56;58.87;96034.78;5023943;28;20056;-49
2022/11/18 05:34:41;;;;;;;0.57;0.30;;;8.20;99.90;;;11.58;58.84;96038.03;5023305;28;20056;-48
2022/11/18 05:37:10;;;;;;;0.60;0.40;;;8.20;99.90;;;11.59;58.78;96037.84;5038896;28;20057;-49
2022/11/18 05:39:38;;;;;;;0.50;0.40;;;8.20;99.90;;;11.57;58.48;96039.91;5023655;28;20050;-50
2022/11/18 05:44:53;;;;;;;0.80;0.60;;;8.20;99.90;;;11.54;58.69;96042.16;5049549;28;20046;-51
2022/11/18 05:47:26;;;;;;;1.10;0.77;;;8.20;99.90;;;11.43;58.93;96044.38;5023729;28;20046;-49
2022/11/18 05:49:54;;;;;;;3.50;0.90;;;8.10;99.90;;;11.33;59.06;96043.19;5055488;28;20053;-53
2022/11/18 05:52:22;;;;;;;1.20;0.77;;;8.10;99.90;;;11.40;58.65;96052.81;5055199;28;20046;-51
2022/11/18 05:54:51;;;;;;;0.60;0.37;;;8.10;99.90;;;11.40;58.70;96055.47;5022945;28;20340;-49
2022/11/18 05:57:19;;;;;;;0.40;0.40;;;8.10;99.90;;;11.41;58.54;96065.09;5055150;28;20247;-49
2022/11/18 05:59:48;;;;;;;0.73;0.50;;;8.10;99.90;;;11.43;59.04;96068.38;5023047;28;20054;-49
2022/11/18 06:02:21;;;;;;;1.13;0.60;;;8.10;99.90;;;11.48;58.72;96064.31;5023387;28;20056;-50
2022/11/18 06:04:58;;;;;;;3.58;0.70;;;8.10;99.90;;;11.50;58.83;96059.59;5022663;28;20038;-53
2022/11/18 06:07:37;;;;;;;1.87;1.00;;;8.20;99.90;;;11.50;58.60;96065.72;5038377;28;20050;-51
2022/11/18 06:10:09;;;;;;;1.23;0.83;;;8.10;99.90;;;11.51;58.95;96067.34;5053876;28;20052;-51
2022/11/18 06:12:42;;;;;;;5.43;0.70;;;8.20;99.90;;;11.43;58.78;96071.03;5053039;28;20046;-52
2022/11/18 06:15:26;;;;;;;1.23;0.80;;;8.10;99.90;;;11.43;58.26;96078.22;5053690;28;20053;-54
2022/11/18 06:17:58;;;;;;;0.60;0.60;;;8.10;99.90;;;11.28;58.38;96075.75;5053538;28;20050;-52
2022/11/18 06:20:27;;;;;;;0.53;0.53;;;8.00;99.90;;;11.37;58.32;96079.03;5022998;28;20049;-53
2022/11/18 06:22:57;;;;;;;0.80;0.60;;;8.00;99.90;;;11.33;58.42;96083.16;5022842;28;20053;-52
2022/11/18 06:25:25;;;;;;;0.97;0.50;;;8.00;99.90;;;11.31;58.35;96090.53;5053844;28;20038;-52
2022/11/18 06:27:58;;;;;;;0.47;0.43;;;8.00;99.90;;;11.31;58.86;96090.53;5021196;28;20060;-52
2022/11/18 06:30:26;;;;;;;0.90;0.60;;;8.00;99.90;;;11.39;58.43;96096.47;5053653;28;20052;-54
2022/11/18 06:32:54;;;;;;;0.70;0.70;;;8.00;99.90;;;11.43;58.52;96097.69;5054352;28;20423;-51
2022/11/18 06:35:23;;;;;;;1.10;0.73;;;8.10;99.90;;;11.46;58.26;96090.31;5020809;28;20225;-51
2022/11/18 06:37:51;;;;;;;2.20;1.20;;;8.10;99.90;;;11.49;58.40;96097.91;5021475;28;20053;-51
2022/11/18 06:40:19;;;;;;;1.53;1.10;;;8.10;99.90;;;11.48;58.64;96110.41;5022686;28;20056;-49
2022/11/18 06:45:33;;;;;;;2.97;1.53;;;8.10;99.90;;;11.51;58.27;96103.84;5021873;28;20038;-55
2022/11/18 06:48:03;;;;;;;3.60;1.60;;;8.10;99.90;;;11.50;58.77;96115.53;5005395;28;20046;-49
2022/11/18 06:50:31;;;;;;;2.13;1.43;;;8.10;99.90;;;11.51;58.34;96115.31;5021077;28;20381;-51
2022/11/18 06:53:00;;;;;;;5.23;1.63;;;8.10;99.90;;;11.52;58.22;96116.16;5022067;28;20239;-50
2022/11/18 06:55:28;;;;;;;3.93;2.50;;;8.10;99.90;;;11.50;58.56;96123.53;5021744;28;20373;-54
2022/11/18 06:57:56;;;;;;;2.20;1.10;;;8.10;99.90;;;11.41;58.27;96131.72;5023210;28;20291;-52
2022/11/18 07:00:24;;;;;;;2.10;1.80;;;8.10;99.90;;;11.45;58.79;96140.13;5022209;28;20247;-51
2022/11/18 07:02:52;;;;;;;1.20;1.10;;;8.10;99.90;;;11.37;58.85;96138.47;5021368;28;20052;-53
2022/11/18 07:05:20;;;;;;;2.00;1.40;;;8.00;99.90;;;11.46;58.41;96147.09;5021638;28;20046;-49
2022/11/18 07:07:49;;;;;;;1.70;0.83;;;8.10;99.90;;;11.50;58.68;96151.00;5020929;28;20056;-51
2022/11/18 07:10:17;;;;;;;3.43;1.40;;;8.20;99.90;;;11.51;58.38;96151.81;5022204;28;20045;-54
2022/11/18 07:12:45;;;;;;;1.30;0.87;;;8.20;99.90;;;11.54;58.64;96143.44;5020983;28;20068;-50
2022/11/18 07:15:13;;;;;;;1.27;1.10;;;8.20;99.90;;;11.54;58.41;96154.91;5037076;28;20054;-53
2022/11/18 07:17:41;;;;;;;1.20;0.90;;;8.10;99.90;;;11.51;58.64;96157.16;5021979;28;20047;-53
2022/11/18 07:20:10;;;;;;;1.83;1.23;;;8.10;99.90;;;11.55;58.35;96161.03;5022150;28;20045;-54
2022/11/18 07:22:38;;;;;;;5.27;2.33;;;8.10;99.90;;;11.45;58.72;96160.63;5021939;28;20061;-51
2022/11/18 07:25:06;;;;;;;5.90;3.20;;;8.10;99.90;;;11.39;58.86;96164.91;5020550;28;20049;-54
2022/11/18 07:27:35;;;;;;;5.57;2.50;;;8.00;99.90;;;11.42;58.67;96172.53;5022426;28;20054;-52
2022/11/18 07:30:03;;;;;;;2.50;1.70;;;8.00;99.90;;;11.32;58.96;96172.06;5004752;28;20054;-52
2022/11/18 07:32:32;;;;;;;4.00;2.67;;;8.00;99.90;;;11.17;59.29;96173.06;5021917;28;20052;-51
2022/11/18 07:35:01;;;;;;;3.07;1.90;;;7.90;99.90;;;11.34;59.38;96181.53;5021832;28;20346;-55
2022/11/18 07:37:29;;;;;;;1.57;1.10;;;8.00;99.90;;;11.25;59.41;96176.59;5021962;28;20069;-53
2022/11/18 07:39:58;;;;;;;0.57;0.57;;;8.00;99.90;;;11.13;59.87;96182.50;5024650;28;20049;-51
2022/11/18 07:42:26;;;;;;;1.47;1.13;;;7.90;99.90;;;11.02;60.09;96189.19;5024794;28;20259;-53
2022/11/18 07:44:54;;;;;;;0.97;0.70;;;7.80;99.90;;;10.94;60.47;96197.38;5040393;28;20060;-51
2022/11/18 07:47:24;;;;;;;0.70;0.67;;;7.80;99.90;;;10.80;61.06;96191.16;5024104;28;20053;-52
2022/11/18 07:49:54;;;;;;;1.30;1.00;;;7.70;99.90;;;10.60;61.51;96201.72;5023844;28;20046;-53
2022/11/18 07:52:22;;;;;;;1.53;0.90;;;7.70;99.90;;;10.64;61.55;96207.47;5025227;28;20217;-54
2022/11/18 07:54:50;;;;;;;3.47;1.50;;;7.70;99.90;;;10.75;61.27;96206.91;5023992;28;20069;-53
2022/11/18 07:57:18;;;;;;;0.87;0.80;;;7.70;99.90;;;10.77;61.47;96204.06;5024610;28;20049;-54
2022/11/18 07:59:47;;;;;;;2.20;1.10;;;7.70;99.90;;;10.95;60.90;96207.00;5025223;28;20046;-50
2022/11/18 08:02:15;;;;;;;1.10;1.00;;;7.80;99.90;;;10.88;61.17;96216.00;5023845;28;20054;-56
2022/11/18 08:04:43;;;;;;;2.00;1.00;;;7.80;99.90;;;10.92;61.11;96219.91;5021299;28;20034;-56
2022/11/18 08:07:11;;;;;;;0.80;0.80;;;7.80;99.90;;;10.71;61.82;96224.28;5025653;28;20056;-53
2022/11/18 08:09:39;;;;;;;1.40;1.30;;;7.80;99.90;;;10.98;60.94;96229.75;5025450;28;20059;-53
2022/11/18 08:12:07;;;;;;;1.20;1.07;;;7.90;99.90;;;10.94;61.47;96225.84;5025084;28;20054;-54
2022/11/18 08:14:35;;;;;;;0.70;0.67;;;7.90;99.90;;;10.97;61.21;96228.94;5024837;28;20062;-56
2022/11/18 08:17:03;;;;;;;0.50;0.50;;;7.80;99.90;;;10.46;62.51;96233.75;5007422;28;20060;-51
2022/11/18 08:19:34;;;;;;;1.17;0.77;;;7.70;99.90;;;10.76;61.72;96237.84;5023395;28;20341;-52
2022/11/18 08:22:02;;;;;;;1.60;1.00;;;7.70;99.90;;;10.96;61.11;96239.78;5040438;28;20350;-60
2022/11/18 08:24:30;;;;;;;1.90;0.70;;;7.80;99.90;;;10.91;61.31;96232.38;5024604;28;20046;-60
2022/11/18 08:26:58;;;;;;;0.90;0.73;;;7.90;99.90;;;10.93;61.23;96235.66;5024941;28;20052;-60
2022/11/18 08:29:27;;;;;;;0.80;0.70;;;7.90;99.90;;;10.90;61.38;96236.06;5040407;28;20054;-61
2022/11/18 08:31:55;;;;;;;0.53;0.50;;;7.90;99.90;;;10.96;61.20;96237.13;5023850;28;20337;-60
2022/11/18 08:34:23;;;;;;;0.50;0.50;;;7.90;99.90;;;11.03;60.91;96246.78;5024586;28;20237;-60
2022/11/18 08:36:51;;;;;;;1.03;0.60;;;8.00;99.90;;;11.12;60.95;96241.28;5023772;28;20072;-60
2022/11/18 08:39:19;;;;;;;1.20;1.00;;;8.10;99.90;;;11.08;61.07;96240.84;5024908;28;20052;-60
2022/11/18 08:41:47;;;;;;;2.93;1.50;;;8.10;99.90;;;11.31;60.60;96240.53;5039794;28;20050;-60
2022/11/18 08:44:16;;;;;;;1.00;0.80;;;8.30;99.90;;;11.35;60.78;96244.44;5023933;28;20061;-60
2022/11/18 08:46:44;;;;;;;0.60;0.60;;;8.30;99.90;;;11.14;61.19;96247.22;5024779;28;20048;-60
2022/11/18 08:49:13;;;;;;;0.70;0.70;;;8.20;99.90;;;11.31;61.07;96259.19;5023526;28;20243;-60
2022/11/18 08:51:41;;;;;;;0.70;0.60;;;8.20;99.90;;;11.35;60.73;96257.75;5023395;28;20050;-60
2022/11/18 08:54:09;;;;;;;1.27;0.60;;;8.20;99.90;;;11.30;60.73;96262.03;5022855;28;20056;-60
2022/11/18 08:56:38;;;;;;;0.63;0.50;;;8.20;99.90;;;11.32;60.62;96262.66;5024236;28;20054;-60
2022/11/18 08:59:07;;;;;;;0.50;0.50;;;8.20;99.90;;;11.32;60.66;96270.66;5024399;28;20054;-60
2022/11/18 09:01:37;;;;;;;0.40;0.40;;;8.20;99.90;;;11.19;61.09;96266.09;5023409;28;20050;-60
2022/11/18 09:04:05;;;;;;;0.97;0.60;;;8.20;99.90;;;11.12;61.79;96267.91;5023924;28;20050;-60
2022/11/18 09:06:34;;;;;;;0.70;0.63;;;8.10;99.90;;;11.17;61.39;96265.50;5024402;28;20060;-60
2022/11/18 09:09:03;;;;;;;1.63;0.70;;;8.10;99.90;;;11.25;61.43;96275.97;5024403;28;20049;-59
2022/11/18 09:11:34;;;;;;;0.70;0.70;;;8.20;99.90;;;11.19;61.38;96268.78;5023095;28;20046;-59
2022/11/18 09:14:03;;;;;;;1.10;1.00;;;8.10;99.90;;;11.25;61.54;96275.97;5022848;28;20052;-59
2022/11/18 09:16:51;;;;;;;0.93;0.70;;;8.20;99.90;;;11.11;62.11;96274.25;5024080;28;20053;-59
2022/11/18 09:19:19;;;;;;;1.80;0.80;;;8.10;99.90;;;11.24;61.84;96279.63;5038979;28;20057;-60
2022/11/18 09:22:08;;;;;;;2.10;1.57;;;8.20;99.90;;;11.19;61.89;96280.25;5036687;28;20064;-60
2022/11/18 09:24:36;;;;;;;2.60;1.50;;;8.20;99.90;;;11.17;62.09;96286.78;5022464;28;20054;-60
2022/11/18 09:27:06;;;;;;;2.47;1.37;;;8.20;99.90;;;11.17;62.08;96284.13;5039021;28;20042;-60
2022/11/18 09:29:40;;;;;;;1.40;1.10;;;8.10;99.90;;;11.35;61.78;96295.06;5023983;28;20042;-60
2022/11/18 09:32:08;;;;;;;0.93;0.87;;;8.30;99.90;;;11.32;61.85;96289.31;5023930;28;20049;-60
2022/11/18 09:34:36;;;;;;;0.97;0.87;;;8.30;99.90;;;11.12;63.02;96297.22;5023969;28;20109;-60
2022/11/18 09:37:05;;;;;;;2.80;1.00;;;8.20;99.90;;;11.20;62.51;96294.38;5023338;28;20058;-60
2022/11/18 09:39:35;;;;;;;2.07;1.20;;;8.20;99.90;;;11.34;62.27;96296.09;5022795;28;20050;-60
2022/11/18 09:42:13;;;;;;;1.73;1.40;;;8.30;99.90;;;11.43;62.19;96302.88;5022673;28;20052;-60
2022/11/18 09:45:02;;;;;;;1.60;1.20;;;8.40;99.90;;;11.36;62.59;96304.72;5022154;28;20052;-60
2022/11/18 09:47:36;;;;;;;1.97;1.40;;;8.40;99.90;;;11.53;62.26;96307.00;5023436;28;20044;-60
2022/11/18 09:50:20;;;;;;;2.40;1.20;;;8.40;99.90;;;11.38;62.25;96302.66;5022190;28;20340;-61
2022/11/18 09:53:24;;;;;;;2.55;1.20;;;8.40;99.90;;;11.48;62.16;96317.47;5023730;28;20062;-60
2022/11/18 09:55:53;;;;;;;;;;;8.40;99.90;;;11.51;62.32;96309.88;5023704;28;20045;-60
2022/11/18 09:58:34;;;;;;;2.27;1.53;;;8.50;99.90;;;11.73;61.76;96320.41;5022282;28;19917;-60
2022/11/18 10:01:12;;;;;;;2.23;1.70;;;8.60;99.90;;;11.48;62.58;96315.63;5023328;28;20072;-60
2022/11/18 10:03:40;;;;;;;3.67;2.83;;;8.60;99.90;;;11.61;62.43;96322.81;5021985;28;20052;-60
2022/11/18 10:06:09;;;;;;;3.47;2.37;;;8.60;99.90;;;11.58;62.72;96321.38;5021684;28;20386;-60
2022/11/18 10:09:24;;;;;;;5.27;2.70;;;8.70;99.90;;;11.46;63.27;96317.66;5023314;28;20052;-60
2022/11/18 10:12:10;;;;;;;;;;;8.60;99.90;;;11.16;63.96;96325.91;5021447;28;20053;-60
2022/11/18 10:14:41;;;;;;;4.27;2.17;;;8.60;99.90;;;11.17;63.95;96332.91;5020604;28;20112;-60
2022/11/18 10:17:36;;;;;;;4.43;2.30;;;8.50;99.90;;;11.37;63.44;96327.66;5022174;28;20062;-60
2022/11/18 10:20:20;;;;;;;6.70;3.10;;;8.60;99.90;;;11.46;63.25;96324.81;5006055;28;20060;-60
2022/11/18 10:22:56;;;;;;;4.88;2.42;;;8.70;99.90;;;11.46;63.39;96331.00;5023613;28;20056;-60
2022/11/18 10:25:24;;;;;;;3.47;2.47;;;8.70;99.90;;;11.41;63.53;96336.06;5022639;28;20050;-60
2022/11/18 10:27:54;;;;;;;2.67;1.77;;;8.70;99.90;;;11.43;63.52;96334.03;5022757;28;20059;-60
2022/11/18 10:30:25;;;;;;;6.23;3.33;;;8.70;99.90;;;11.73;63.04;96337.22;5021868;28;20045;-60
2022/11/18 10:32:58;;;;;;;3.77;2.17;;;8.80;99.90;;;11.88;62.38;96344.25;5021416;28;20084;-59
2022/11/18 10:35:37;;;;;;;4.25;1.90;;;8.90;99.90;;;11.06;64.53;96341.44;5022883;28;20058;-60
2022/11/18 10:38:18;;;;;;;5.87;1.90;;;8.70;99.90;;;10.98;64.81;96342.41;5021781;28;20058;-60
2022/11/18 10:41:17;;;;;;;3.53;2.50;;;8.70;99.90;;;11.45;63.66;96336.50;5022816;28;20354;-60
2022/11/18 10:43:53;;;;;;;2.87;1.70;;;8.70;99.90;;;10.92;64.88;96342.38;5020988;28;20386;-60
2022/11/18 10:46:38;;;;;;;2.43;1.80;;;8.60;99.90;;;11.09;64.78;96342.88;5021398;28;20056;-59
2022/11/18 10:49:16;;;;;;;3.23;2.80;;;8.70;99.90;;;11.12;64.44;96342.50;5021333;28;20052;-60
2022/11/18 10:51:47;;;;;;;5.00;2.33;;;8.60;99.90;;;11.41;63.59;96344.88;5019222;28;20050;-59
2022/11/18 10:54:22;;;;;;;4.53;2.57;;;8.70;99.90;;;11.38;63.52;96347.97;5020562;28;20062;-57
2022/11/18 10:57:09;;;;;;;4.60;2.60;;;8.70;99.90;;;11.11;64.94;96348.81;5022714;28;20050;-59
2022/11/18 10:59:50;;;;;;;3.83;1.70;;;8.60;99.90;;;11.34;63.84;96360.03;5006497;28;20053;-60
2022/11/18 11:02:23;;;;;;;2.90;1.80;;;8.70;99.90;;;11.46;63.26;96356.78;5021311;28;20059;-60
2022/11/18 11:04:52;;;;;;;1.77;1.17;;;8.70;99.90;;;11.37;63.11;96362.28;5017200;28;20059;-60
2022/11/18 11:07:34;;;;;;;2.70;1.30;;;8.60;99.90;;;11.13;64.07;96362.78;5022203;28;20370;-59
2022/11/18 11:10:06;;;;;;;5.50;1.17;;;8.60;99.90;;;11.29;63.32;96362.47;5020770;28;20052;-57